Time;durP1;ratioP1;P1;durP2;ratioP2;P2;SDS_P1;SDS_P2;PMS_P1;PMS_P2;Temp;Humidity;BMP_temperature;BMP_pressure;BME280_temperature;BME280_humidity;BME280_pressure;Samples;Min_cycle;Max_cycle;Signal;HPM_P1;HPM_P2
2021/10/02 00:34:45;;;;;;;;;16.60;14.00;;;;;15.43;55.36;99294.25;6195309;27;97144;-60
2021/10/02 00:38:03;;;;;;;;;14.00;14.00;;;;;15.47;54.91;99292.69;6221219;28;96983;-61
2021/10/02 00:41:22;;;;;;;;;13.40;12.40;;;;;15.42;54.79;99298.03;6237208;28;97500;-63
2021/10/02 00:44:40;;;;;;;;;14.00;13.00;;;;;15.37;55.37;99291.66;6238178;28;97419;-61
2021/10/02 00:47:44;;;;;;;;;14.00;13.50;;;;;15.35;54.86;99291.91;6228461;27;96714;-61
2021/10/02 00:50:48;;;;;;;;;13.80;12.00;;;;;15.35;55.04;99291.06;6236292;28;97882;-62
2021/10/02 00:53:52;;;;;;;;;11.25;11.00;;;;;15.23;54.77;99280.28;6224631;28;96949;-62
2021/10/02 00:56:57;;;;;;;;;14.60;13.40;;;;;15.14;54.63;99276.28;6230828;28;97446;-63
2021/10/02 01:00:01;;;;;;;;;12.60;11.00;;;;;15.17;54.74;99282.06;6227185;28;96654;-62
2021/10/02 01:03:16;;;;;;;;;14.00;13.00;;;;;14.96;54.81;99257.44;6230905;28;97485;-62
2021/10/02 01:06:43;;;;;;;;;14.40;12.20;;;;;15.13;55.15;99280.06;6234658;28;97360;-62
2021/10/02 01:10:01;;;;;;;;;13.00;13.00;;;;;15.10;55.36;99286.78;6234177;28;97445;-62
2021/10/02 01:13:18;;;;;;;;;12.40;12.00;;;;;14.96;54.96;99268.31;6217471;27;96568;-59
2021/10/02 01:16:26;;;;;;;;;12.00;12.00;;;;;15.09;54.86;99277.03;6227067;28;98525;-62
2021/10/02 01:19:43;;;;;;;;;12.40;11.60;;;;;15.04;54.95;99268.78;6223406;28;96474;-61
2021/10/02 01:23:00;;;;;;;;;12.00;11.00;;;;;14.88;54.99;99268.69;6217878;28;96623;-64
2021/10/02 01:26:20;;;;;;;;;14.50;12.00;;;;;14.90;55.04;99274.72;6223485;28;96489;-63
2021/10/02 01:29:27;;;;;;;;;11.50;11.00;;;;;14.87;54.86;99267.03;6229314;28;97355;-61
2021/10/02 01:32:34;;;;;;;;;12.00;11.00;;;;;14.93;54.99;99271.50;6232040;28;97177;-59
2021/10/02 01:35:44;;;;;;;;;11.00;9.40;;;;;14.93;54.98;99266.91;6225633;27;97079;-63
2021/10/02 01:48:56;;;;;;;;;10.80;10.40;;;;;14.68;54.54;99264.50;6236569;27;97127;-60
2021/10/02 01:52:00;;;;;;;;;12.00;12.00;;;;;14.69;54.58;99268.84;6230775;27;97008;-61
2021/10/02 01:55:05;;;;;;;;;10.60;10.60;;;;;14.68;54.52;99266.38;6234151;28;97524;-59
2021/10/02 01:58:11;;;;;;;;;10.00;9.75;;;;;14.58;54.58;99256.13;6236252;27;96576;-64
2021/10/02 02:01:19;;;;;;;;;13.75;12.75;;;;;14.64;54.67;99254.34;6227416;28;96886;-63
2021/10/02 02:04:23;;;;;;;;;12.00;11.00;;;;;14.61;54.54;99261.06;6234416;28;96648;-63
2021/10/02 02:07:29;;;;;;;;;11.20;10.80;;;;;14.57;54.56;99265.31;6236118;28;98325;-63
2021/10/02 02:10:34;;;;;;;;;12.00;12.00;;;;;14.60;54.44;99261.31;6211183;28;96483;-61
2021/10/02 02:13:39;;;;;;;;;10.00;9.60;;;;;14.56;54.47;99257.44;6233025;28;97535;-62
2021/10/02 02:16:46;;;;;;;;;12.25;11.75;;;;;14.50;54.34;99242.94;6226788;28;97501;-61
2021/10/02 02:19:52;;;;;;;;;13.00;11.40;;;;;14.48;54.20;99246.94;6234397;27;96412;-63
2021/10/02 02:22:55;;;;;;;;;12.40;12.40;;;;;14.42;54.49;99231.59;6215050;28;97262;-63
2021/10/02 02:26:01;;;;;;;;;13.00;11.00;;;;;14.43;54.57;99244.13;6217345;28;97097;-64
2021/10/02 02:29:05;;;;;;;;;14.00;12.40;;;;;14.39;54.32;99241.06;6232246;28;96820;-62
2021/10/02 02:32:09;;;;;;;;;11.00;10.00;;;;;14.42;54.54;99237.84;6220902;28;97031;-62
2021/10/02 02:35:13;;;;;;;;;11.00;10.20;;;;;14.42;54.37;99234.31;6233541;28;96807;-62
2021/10/02 02:38:17;;;;;;;;;11.00;11.00;;;;;14.36;54.28;99235.25;6228226;28;97859;-60
2021/10/02 02:41:20;;;;;;;;;11.00;10.00;;;;;14.35;54.30;99230.88;6232811;28;96809;-64
2021/10/02 02:44:23;;;;;;;;;10.40;10.00;;;;;14.30;54.56;99231.59;6227317;28;97638;-63
2021/10/02 02:47:32;;;;;;;;;11.00;10.25;;;;;14.30;54.48;99226.19;6242851;27;97416;-61
2021/10/02 02:50:43;;;;;;;;;13.50;12.00;;;;;14.07;54.06;99210.75;6227324;28;96860;-64
2021/10/02 02:53:52;;;;;;;;;10.00;10.00;;;;;14.20;54.64;99226.78;6222775;28;96564;-61
2021/10/02 02:57:02;;;;;;;;;11.00;10.75;;;;;14.20;54.79;99226.78;6212488;28;97231;-63
2021/10/02 03:00:09;;;;;;;;;11.00;11.00;;;;;14.23;54.62;99225.47;6228766;28;97349;-62
2021/10/02 03:03:13;;;;;;;;;12.00;12.00;;;;;14.21;54.49;99223.00;6227547;28;98020;-59
2021/10/02 03:06:19;;;;;;;;;12.20;10.80;;;;;14.19;54.46;99224.28;6237396;28;97488;-59
2021/10/02 03:09:24;;;;;;;;;12.00;10.40;;;;;14.15;54.48;99223.94;6237490;28;99216;-62
2021/10/02 03:12:31;;;;;;;;;9.00;8.00;;;;;14.08;54.48;99211.56;6224738;27;97203;-59
2021/10/02 03:15:36;;;;;;;;;10.00;10.00;;;;;14.10;54.78;99217.59;6231541;28;97985;-63
2021/10/02 03:18:45;;;;;;;;;11.60;11.00;;;;;14.10;54.73;99215.69;6222927;28;98325;-60
2021/10/02 03:21:50;;;;;;;;;12.00;10.80;;;;;14.09;54.58;99215.94;6223944;28;96640;-62
2021/10/02 03:24:55;;;;;;;;;8.00;8.00;;;;;14.07;54.65;99218.91;6223668;28;96511;-60
2021/10/02 03:28:01;;;;;;;;;11.40;9.40;;;;;14.06;54.70;99221.84;6225211;28;96415;-61
2021/10/02 03:31:07;;;;;;;;;11.00;10.20;;;;;14.02;54.52;99218.78;6230466;28;96627;-62
2021/10/02 03:34:12;;;;;;;;;11.00;10.00;;;;;14.04;54.69;99215.81;6228144;27;97262;-61
2021/10/02 03:37:16;;;;;;;;;10.80;9.00;;;;;14.07;54.60;99209.94;6226557;27;97109;-60
2021/10/02 03:40:20;;;;;;;;;10.60;10.00;;;;;14.11;54.47;99211.09;6228380;28;97413;-60
2021/10/02 03:43:24;;;;;;;;;8.20;8.20;;;;;14.08;54.11;99217.81;6234503;28;96689;-62
2021/10/02 03:46:27;;;;;;;;;11.50;10.50;;;;;14.05;54.16;99210.16;6226511;28;97558;-62
2021/10/02 03:49:31;;;;;;;;;11.00;10.50;;;;;14.05;53.96;99209.34;6231191;28;98623;-62
2021/10/02 03:52:35;;;;;;;;;10.00;9.00;;;;;14.04;54.15;99208.50;6226252;28;96712;-62
2021/10/02 03:55:40;;;;;;;;;13.00;10.00;;;;;13.99;54.04;99205.66;6216971;28;97748;-61
2021/10/02 03:58:44;;;;;;;;;9.00;9.00;;;;;13.95;54.12;99209.09;6197754;28;96975;-60
2021/10/02 04:01:47;;;;;;;;;12.00;11.00;;;;;13.94;54.27;99202.00;6227050;28;96904;-60
2021/10/02 04:04:52;;;;;;;;;11.60;10.00;;;;;13.97;54.17;99213.25;6235268;28;96584;-61
2021/10/02 04:07:55;;;;;;;;;11.00;10.60;;;;;13.96;54.22;99205.34;6225174;28;98030;-61
2021/10/02 04:11:02;;;;;;;;;11.60;10.60;;;;;13.94;54.30;99207.44;6252828;27;96917;-62
2021/10/02 04:14:06;;;;;;;;;11.60;11.00;;;;;13.95;54.28;99215.34;6226093;27;97191;-59
2021/10/02 04:17:09;;;;;;;;;11.00;10.00;;;;;13.97;54.06;99215.13;6232379;28;97468;-64
2021/10/02 04:20:14;;;;;;;;;10.00;9.50;;;;;13.96;53.94;99213.47;6230232;28;97518;-60
2021/10/02 04:23:17;;;;;;;;;10.00;10.00;;;;;13.93;53.94;99216.66;6236841;28;96922;-60
2021/10/02 04:26:22;;;;;;;;;12.00;11.00;;;;;13.89;53.73;99211.69;6225344;28;96462;-62
2021/10/02 04:29:25;;;;;;;;;10.80;9.80;;;;;13.87;53.63;99213.81;6219299;28;97791;-61
2021/10/02 04:32:28;;;;;;;;;10.50;10.00;;;;;13.77;53.75;99212.75;6222932;27;96971;-64
2021/10/02 04:35:33;;;;;;;;;11.00;10.00;;;;;13.74;54.01;99210.50;6215059;28;96796;-62
2021/10/02 04:38:37;;;;;;;;;10.00;10.00;;;;;13.72;53.83;99216.16;6228263;28;97157;-62
2021/10/02 04:41:41;;;;;;;;;9.33;8.00;;;;;13.71;53.95;99203.66;6233932;28;97403;-62
2021/10/02 04:44:44;;;;;;;;;11.20;10.80;;;;;13.72;53.89;99216.16;6233726;28;96689;-62
2021/10/02 04:47:47;;;;;;;;;10.20;9.60;;;;;13.70;54.22;99209.31;6237808;28;98084;-62
2021/10/02 04:50:52;;;;;;;;;12.00;11.00;;;;;13.68;54.03;99211.44;6224568;28;96523;-62
2021/10/02 04:53:55;;;;;;;;;9.80;9.00;;;;;13.67;54.17;99221.47;6231826;27;97472;-62
2021/10/02 04:56:58;;;;;;;;;10.00;9.20;;;;;13.59;54.17;99205.53;6226241;28;97095;-61
2021/10/02 05:00:01;;;;;;;;;11.00;10.50;;;;;13.69;54.08;99211.19;6227007;28;97481;-61
2021/10/02 05:03:05;;;;;;;;;10.40;10.00;;;;;13.68;54.09;99214.94;6226357;28;97165;-61
2021/10/02 05:06:10;;;;;;;;;8.00;8.00;;;;;13.67;54.21;99218.75;6236646;28;96496;-62
2021/10/02 05:09:13;;;;;;;;;10.00;10.00;;;;;13.69;54.17;99216.59;6228599;27;97780;-63
2021/10/02 05:12:17;;;;;;;;;13.00;11.00;;;;;13.68;54.29;99209.53;6244262;27;96773;-62
2021/10/02 05:15:20;;;;;;;;;13.80;10.80;;;;;13.70;54.14;99212.84;6215310;28;98033;-62
2021/10/02 05:18:24;;;;;;;;;12.20;11.00;;;;;13.77;54.34;99216.28;6219272;28;97037;-62
2021/10/02 05:21:28;;;;;;;;;11.40;10.60;;;;;13.79;53.83;99214.16;6213419;28;97466;-62
2021/10/02 05:24:36;;;;;;;;;10.00;9.20;;;;;13.83;53.92;99217.22;6215666;28;96852;-61
2021/10/02 05:27:39;;;;;;;;;11.60;11.00;;;;;13.87;54.17;99216.53;6217014;27;96529;-63
2021/10/02 05:30:42;;;;;;;;;11.00;11.00;;;;;13.94;54.02;99218.28;6217712;28;98154;-64
2021/10/02 05:33:46;;;;;;;;;10.00;10.00;;;;;14.01;53.92;99210.88;6231605;27;98076;-60
2021/10/02 05:36:51;;;;;;;;;11.40;11.00;;;;;14.09;53.70;99216.75;6232462;28;96780;-60
2021/10/02 05:39:54;;;;;;;;;11.00;10.00;;;;;14.11;53.49;99224.66;6220942;28;98724;-61
2021/10/02 05:42:58;;;;;;;;;13.00;12.00;;;;;14.19;53.58;99227.00;6227655;27;96619;-63
2021/10/02 05:46:01;;;;;;;;;10.25;10.00;;;;;14.29;53.62;99219.94;6233826;27;96550;-62
2021/10/02 05:49:05;;;;;;;;;9.20;8.00;;;;;14.36;53.22;99222.56;6214964;27;96566;-62
2021/10/02 05:52:10;;;;;;;;;10.00;10.00;;;;;14.39;52.97;99227.50;6218306;28;97115;-62
2021/10/02 05:55:14;;;;;;;;;10.00;9.80;;;;;14.47;52.98;99220.88;6220485;27;97523;-62
2021/10/02 05:58:17;;;;;;;;;10.00;10.00;;;;;14.58;52.81;99220.03;6233745;27;96660;-63
2021/10/02 06:01:20;;;;;;;;;10.00;9.40;;;;;14.65;52.80;99207.16;6214746;28;96819;-62
2021/10/02 06:04:24;;;;;;;;;10.60;10.60;;;;;14.84;52.27;99219.50;6213202;28;98090;-60
2021/10/02 06:07:28;;;;;;;;;10.40;9.40;;;;;14.92;52.35;99229.13;6244345;27;97531;-63
2021/10/02 06:10:32;;;;;;;;;13.00;11.50;;;;;15.03;51.80;99226.38;6229749;28;96807;-62
2021/10/02 06:13:35;;;;;;;;;11.00;10.00;;;;;15.25;51.67;99220.28;6223861;28;96623;-62
2021/10/02 06:16:38;;;;;;;;;10.20;9.80;;;;;15.42;50.96;99227.38;6227808;28;96737;-62
2021/10/02 06:19:42;;;;;;;;;11.00;10.00;;;;;15.60;50.56;99231.78;6219925;27;97443;-62
2021/10/02 06:22:47;;;;;;;;;10.00;10.00;;;;;15.81;50.73;99230.25;6224046;27;96687;-60
2021/10/02 06:25:50;;;;;;;;;10.25;10.00;;;;;16.08;50.12;99228.47;6219417;28;96825;-60
2021/10/02 06:28:54;;;;;;;;;10.40;9.40;;;;;16.51;49.78;99225.03;6217885;28;96570;-62
2021/10/02 06:31:57;;;;;;;;;10.67;10.00;;;;;16.95;49.00;99227.78;6228721;27;97382;-62
2021/10/02 06:35:00;;;;;;;;;11.60;11.00;;;;;17.44;48.43;99237.59;6231720;27;97515;-63
2021/10/02 06:38:06;;;;;;;;;13.60;12.00;;;;;18.11;46.81;99234.38;6239835;27;97239;-62
2021/10/02 06:41:09;;;;;;;;;12.00;12.00;;;;;18.69;45.12;99235.28;6231662;28;97182;-60
2021/10/02 06:44:12;;;;;;;;;11.25;11.25;;;;;19.35;43.51;99228.94;6222314;28;97229;-61
2021/10/02 06:47:16;;;;;;;;;12.00;11.00;;;;;19.96;42.62;99231.78;6218790;27;97501;-61
2021/10/02 06:50:19;;;;;;;;;12.40;11.40;;;;;20.07;42.07;99227.13;6233024;28;97969;-59
2021/10/02 06:53:24;;;;;;;;;14.00;14.00;;;;;20.77;40.94;99229.72;6224712;28;97448;-61
2021/10/02 06:56:27;;;;;;;;;12.40;11.60;;;;;21.47;39.58;99215.94;6233507;27;96621;-62
2021/10/02 06:59:30;;;;;;;;;13.60;12.00;;;;;22.23;38.37;99216.19;6214484;28;97495;-62
2021/10/02 07:02:34;;;;;;;;;13.00;12.00;;;;;23.11;37.14;99229.47;6214455;28;97641;-60
2021/10/02 07:05:37;;;;;;;;;13.00;12.25;;;;;23.80;35.87;99216.91;6214604;28;98145;-63
2021/10/02 07:08:42;;;;;;;;;12.00;12.00;;;;;24.56;34.70;99223.84;6214703;28;96535;-60
2021/10/02 07:11:46;;;;;;;;;11.80;9.20;;;;;25.14;33.92;99223.25;6229162;27;96757;-61
2021/10/02 07:14:49;;;;;;;;;9.00;8.60;;;;;25.75;33.18;99231.81;6229296;28;97992;-60
2021/10/02 07:17:52;;;;;;;;;13.00;12.00;;;;;26.36;31.89;99221.16;6230724;28;97648;-62
2021/10/02 07:20:55;;;;;;;;;10.00;10.00;;;;;26.89;31.43;99232.97;6214501;28;97541;-63
2021/10/02 07:24:00;;;;;;;;;11.50;11.00;;;;;27.43;30.64;99231.63;6216353;28;98144;-60
2021/10/02 07:27:04;;;;;;;;;12.80;11.20;;;;;27.91;29.20;99236.22;6214888;28;96577;-62
2021/10/02 07:30:09;;;;;;;;;13.00;12.00;;;;;28.45;29.10;99237.44;6214522;27;97402;-63
2021/10/02 07:33:12;;;;;;;;;12.00;12.00;;;;;28.85;28.71;99233.25;6229547;28;97301;-61
2021/10/02 07:36:16;;;;;;;;;10.00;10.00;;;;;29.31;27.80;99231.56;6219646;27;97315;-63
2021/10/02 07:39:21;;;;;;;;;12.20;12.00;;;;;29.70;28.01;99236.66;6231873;28;97147;-62
2021/10/02 07:42:26;;;;;;;;;12.80;12.80;;;;;30.10;27.52;99234.16;6214535;28;96513;-63
2021/10/02 07:45:29;;;;;;;;;10.60;10.00;;;;;30.38;27.05;99225.22;6229476;27;97467;-63
2021/10/02 07:48:34;;;;;;;;;14.00;11.00;;;;;30.76;26.06;99242.47;6214329;28;97080;-60
2021/10/02 07:51:38;;;;;;;;;12.00;12.00;;;;;31.01;25.84;99228.56;6214457;28;96728;-62
2021/10/02 07:54:47;;;;;;;;;11.20;10.80;;;;;31.32;25.62;99232.41;6224010;28;97510;-61
2021/10/02 07:57:50;;;;;;;;;14.00;13.00;;;;;31.55;25.69;99224.34;6238921;27;97557;-60
2021/10/02 08:00:54;;;;;;;;;10.40;10.40;;;;;31.82;25.13;99223.56;6238974;27;96463;-62
2021/10/02 08:03:57;;;;;;;;;12.00;10.80;;;;;32.02;24.69;99230.13;6236667;28;96766;-62
2021/10/02 08:07:20;;;;;;;;;12.75;12.50;;;;;32.27;24.76;99228.03;6226988;28;96743;-62
2021/10/02 08:10:27;;;;;;;;;13.50;12.50;;;;;32.55;24.65;99226.00;6226348;28;96611;-61
2021/10/02 08:13:31;;;;;;;;;12.25;12.00;;;;;32.80;24.16;99237.03;6213892;28;96328;-63
2021/10/02 08:16:35;;;;;;;;;11.00;11.00;;;;;33.16;24.19;99219.19;6214993;28;97503;-61
2021/10/02 08:19:41;;;;;;;;;12.40;12.40;;;;;33.45;23.91;99213.06;6214348;28;96956;-62
2021/10/02 08:22:47;;;;;;;;;12.00;11.75;;;;;33.72;24.09;99197.31;6214167;28;97587;-60
2021/10/02 08:25:54;;;;;;;;;15.40;13.60;;;;;34.13;23.77;99221.72;6212307;28;96902;-64
2021/10/02 08:28:59;;;;;;;;;15.00;12.20;;;;;34.40;23.85;99224.66;6214390;28;98421;-61
2021/10/02 08:32:02;;;;;;;;;14.00;12.00;;;;;34.67;23.59;99229.13;6213777;28;97644;-62
2021/10/02 08:35:08;;;;;;;;;14.00;12.00;;;;;34.93;22.69;99222.81;6213936;28;97490;-60
2021/10/02 08:38:11;;;;;;;;;13.00;13.00;;;;;35.01;22.96;99210.50;6212820;28;97526;-62
2021/10/02 08:41:20;;;;;;;;;15.40;13.40;;;;;35.18;22.84;99205.22;6213397;28;96377;-63
2021/10/02 08:44:24;;;;;;;;;13.40;13.00;;;;;35.31;22.91;99213.41;6213449;28;96392;-62
2021/10/02 08:47:28;;;;;;;;;14.00;12.00;;;;;35.45;22.88;99213.59;6212716;28;96596;-60
2021/10/02 08:50:32;;;;;;;;;13.25;12.00;;;;;35.78;22.30;99215.66;6221682;28;97285;-63
2021/10/02 08:53:35;;;;;;;;;15.00;13.50;;;;;36.08;22.41;99215.63;6216471;28;97886;-61
2021/10/02 08:56:40;;;;;;;;;14.00;13.00;;;;;36.20;22.14;99206.97;6230226;28;97098;-63
2021/10/02 08:59:44;;;;;;;;;13.75;12.75;;;;;36.34;21.97;99209.94;6212749;28;96424;-63
2021/10/02 09:02:47;;;;;;;;;14.60;13.00;;;;;36.51;21.67;99202.88;6213083;28;96588;-63
2021/10/02 09:05:51;;;;;;;;;13.80;12.00;;;;;36.69;21.28;99203.88;6213023;28;97427;-61
2021/10/02 09:08:54;;;;;;;;;15.00;13.40;;;;;36.83;21.75;99204.81;6212939;28;97496;-61
2021/10/02 09:11:59;;;;;;;;;12.60;11.60;;;;;37.15;21.38;99202.25;6215479;28;96693;-61
2021/10/02 09:15:03;;;;;;;;;14.00;14.00;;;;;37.35;21.28;99201.97;6213662;28;96377;-61
2021/10/02 09:18:06;;;;;;;;;14.00;14.00;;;;;37.48;21.01;99206.88;6212701;28;96823;-60
2021/10/02 09:21:10;;;;;;;;;13.00;12.20;;;;;37.55;21.38;99195.69;6224510;28;98435;-62
2021/10/02 09:24:24;;;;;;;;;16.25;14.00;;;;;37.70;21.18;99196.53;6223141;28;96580;-60
2021/10/02 09:27:30;;;;;;;;;14.00;13.00;;;;;37.92;21.12;99184.19;6213145;28;96578;-60
2021/10/02 09:30:34;;;;;;;;;14.00;13.00;;;;;38.10;20.68;99187.88;6213113;28;96946;-61
2021/10/02 09:33:37;;;;;;;;;13.60;13.00;;;;;38.33;20.32;99181.88;6230033;28;97445;-63
2021/10/02 09:36:46;;;;;;;;;14.00;13.00;;;;;38.39;20.27;99176.66;6252426;27;97480;-61
2021/10/02 09:39:51;;;;;;;;;14.00;13.80;;;;;38.51;20.01;99176.31;6236361;28;96613;-62
2021/10/02 09:42:58;;;;;;;;;12.00;11.00;;;;;38.68;20.14;99178.31;6235744;28;97056;-62
2021/10/02 09:46:01;;;;;;;;;15.00;14.00;;;;;38.86;18.93;99181.09;6212660;28;97514;-61
2021/10/02 09:49:04;;;;;;;;;14.60;14.60;;;;;39.06;18.75;99184.34;6231985;28;96372;-63
2021/10/02 09:52:08;;;;;;;;;14.20;13.80;;;;;38.97;18.97;99179.13;6236466;28;97453;-62
2021/10/02 09:55:23;;;;;;;;;13.60;12.00;;;;;38.83;18.12;99170.66;6236997;28;96403;-62
2021/10/02 09:58:34;;;;;;;;;21.40;19.00;;;;;38.83;18.74;99165.03;6237502;28;97517;-64
2021/10/02 10:01:37;;;;;;;;;15.00;14.60;;;;;38.81;18.53;99168.22;6228617;27;97144;-64
2021/10/02 10:04:48;;;;;;;;;15.00;15.00;;;;;38.68;18.09;99169.84;6212060;28;97480;-63
2021/10/02 10:07:54;;;;;;;;;15.80;14.80;;;;;38.01;18.28;99167.75;6212341;28;96958;-61
2021/10/02 10:11:06;;;;;;;;;15.20;15.20;;;;;37.60;18.48;99164.34;6211836;28;97708;-63
2021/10/02 10:14:18;;;;;;;;;15.00;14.00;;;;;37.27;19.19;99153.31;6212478;28;97623;-62
2021/10/02 10:17:21;;;;;;;;;14.00;13.50;;;;;37.11;18.37;99156.44;6212090;28;97614;-62
2021/10/02 10:20:33;;;;;;;;;15.00;15.00;;;;;37.18;18.90;99145.25;6212232;28;96361;-62
2021/10/02 10:23:41;;;;;;;;;18.00;16.00;;;;;37.41;19.01;99141.31;6237336;28;97540;-60
2021/10/02 10:26:45;;;;;;;;;16.00;14.60;;;;;37.56;19.07;99146.66;6236263;28;96500;-63
2021/10/02 10:29:50;;;;;;;;;17.00;15.00;;;;;37.27;19.73;99151.31;6233980;28;97469;-62
2021/10/02 10:33:00;;;;;;;;;16.50;14.25;;;;;37.02;19.41;99149.53;6233330;27;97215;-64
2021/10/02 10:36:03;;;;;;;;;17.40;15.40;;;;;36.42;19.50;99144.22;6211622;28;96440;-64
2021/10/02 10:39:06;;;;;;;;;15.00;15.00;;;;;36.39;18.57;99139.38;6232297;28;97572;-63
2021/10/02 10:42:10;;;;;;;;;15.80;14.00;;;;;36.68;19.11;99144.06;6211485;28;97938;-62
2021/10/02 10:45:17;;;;;;;;;15.40;14.00;;;;;36.71;18.25;99143.28;6212308;28;97437;-63
2021/10/02 10:48:21;;;;;;;;;15.00;14.00;;;;;36.83;18.72;99139.34;6210722;28;97477;-59
2021/10/02 10:51:28;;;;;;;;;17.00;16.00;;;;;36.87;18.60;99141.00;6211232;28;97164;-61
2021/10/02 10:54:32;;;;;;;;;16.00;15.80;;;;;36.92;18.17;99128.56;6211426;28;96527;-63
2021/10/02 10:57:37;;;;;;;;;15.00;15.00;;;;;36.96;18.56;99123.78;6214289;28;97920;-60
2021/10/02 11:00:43;;;;;;;;;17.00;15.00;;;;;37.11;18.55;99127.50;6217446;27;97532;-63
2021/10/02 11:03:49;;;;;;;;;16.00;14.00;;;;;37.14;17.89;99115.50;6211579;28;97452;-63
2021/10/02 11:06:55;;;;;;;;;15.25;14.25;;;;;36.71;18.70;99103.13;6224684;28;97405;-61
2021/10/02 11:09:58;;;;;;;;;17.80;16.00;;;;;36.81;18.41;99108.84;6222359;27;97480;-61
2021/10/02 11:13:02;;;;;;;;;15.00;14.60;;;;;36.86;17.96;99113.28;6220365;28;97804;-60
2021/10/02 11:16:38;;;;;;;;;15.60;15.60;;;;;36.88;17.92;99110.91;6217126;28;96813;-62
2021/10/02 11:19:43;;;;;;;;;14.50;13.00;;;;;36.69;18.70;99100.75;6232870;27;96725;-62
2021/10/02 11:23:23;;;;;;;;;13.25;12.75;;;;;36.63;18.63;99102.28;6230999;28;96609;-60
2021/10/02 11:26:29;;;;;;;;;14.00;13.00;;;;;36.69;18.57;99091.50;6220319;28;96726;-62
2021/10/02 11:29:35;;;;;;;;;14.20;13.20;;;;;36.94;18.21;99095.28;6223693;28;97454;-62
2021/10/02 11:32:39;;;;;;;;;14.40;13.80;;;;;37.23;18.20;99091.44;6223974;27;97455;-63
2021/10/02 11:35:42;;;;;;;;;18.00;17.00;;;;;36.97;17.82;99082.44;6222285;28;97551;-62
2021/10/02 11:38:46;;;;;;;;;17.40;15.60;;;;;36.81;18.22;99079.91;6223089;28;96685;-60
2021/10/02 11:42:13;;;;;;;;;15.60;14.00;;;;;36.53;18.56;99077.72;6222486;28;96583;-63
2021/10/02 11:45:33;;;;;;;;;17.00;15.00;;;;;36.45;18.40;99076.88;6234986;28;96720;-63
2021/10/02 11:48:47;;;;;;;;;13.75;13.75;;;;;36.41;17.58;99080.81;6234650;28;97578;-63
2021/10/02 11:52:17;;;;;;;;;14.00;13.60;;;;;36.58;17.46;99066.09;6226323;28;96774;-63
2021/10/02 11:55:48;;;;;;;;;14.60;14.40;;;;;36.58;17.72;99077.34;6175461;28;96927;-61
2021/10/02 11:58:54;;;;;;;;;15.40;15.00;;;;;36.66;18.06;99070.59;6167798;28;97979;-60
2021/10/02 12:02:04;;;;;;;;;14.00;14.00;;;;;36.59;18.91;99073.34;6222474;27;96513;-63
2021/10/02 12:05:09;;;;;;;;;15.00;13.00;;;;;36.51;17.74;99073.69;6220996;28;97515;-63
2021/10/02 12:08:34;;;;;;;;;13.00;13.00;;;;;36.11;18.17;99064.13;6223513;28;97158;-62
2021/10/02 12:11:43;;;;;;;;;17.00;15.00;;;;;35.22;19.04;99056.72;6218167;28;98619;-61
2021/10/02 12:14:57;;;;;;;;;17.00;15.60;;;;;34.11;19.56;99067.38;6218867;28;98203;-62
2021/10/02 12:18:00;;;;;;;;;16.00;14.20;;;;;33.17;20.78;99064.34;6221140;28;97077;-61
2021/10/02 12:21:05;;;;;;;;;16.00;15.00;;;;;32.98;21.32;99060.34;6231146;28;97073;-63
2021/10/02 12:24:18;;;;;;;;;16.00;15.00;;;;;32.45;21.64;99063.88;6231894;28;96691;-62
2021/10/02 12:27:22;;;;;;;;;16.00;15.60;;;;;32.04;22.12;99060.44;6219024;28;97146;-63
2021/10/02 12:30:25;;;;;;;;;15.40;13.40;;;;;31.82;22.85;99052.69;6219590;28;97664;-62
2021/10/02 12:33:29;;;;;;;;;15.80;14.20;;;;;31.49;22.84;99049.38;6226561;28;96676;-60
2021/10/02 12:36:40;;;;;;;;;16.40;14.60;;;;;31.40;24.08;99050.34;6231114;28;97490;-62
2021/10/02 12:39:47;;;;;;;;;17.40;16.00;;;;;31.31;24.28;99054.44;6228089;28;97451;-60
2021/10/02 12:42:53;;;;;;;;;15.00;14.40;;;;;31.36;23.58;99057.81;6229987;28;96670;-61
2021/10/02 12:45:57;;;;;;;;;15.00;13.40;;;;;31.30;23.51;99045.28;6220749;28;96867;-61
2021/10/02 12:49:00;;;;;;;;;19.00;18.00;;;;;31.04;24.45;99047.69;6221497;28;97141;-63
2021/10/02 12:52:06;;;;;;;;;14.60;14.00;;;;;30.64;24.32;99050.44;6213982;28;97112;-62
2021/10/02 12:55:12;;;;;;;;;17.50;15.50;;;;;30.50;24.78;99055.53;6231395;28;97070;-64
2021/10/02 12:58:16;;;;;;;;;16.40;15.00;;;;;30.24;24.54;99043.94;6228258;28;98099;-63
2021/10/02 13:01:19;;;;;;;;;14.00;13.75;;;;;30.10;25.12;99050.66;6222594;28;96719;-61
2021/10/02 13:04:23;;;;;;;;;14.00;13.00;;;;;29.90;25.00;99046.03;6222089;28;97648;-64
2021/10/02 13:07:30;;;;;;;;;15.00;14.00;;;;;30.05;25.35;99036.19;6226871;28;97715;-64
2021/10/02 13:10:38;;;;;;;;;16.00;14.50;;;;;29.96;25.37;99039.06;6227152;28;96975;-62
2021/10/02 13:13:42;;;;;;;;;14.60;13.00;;;;;29.77;24.96;99030.44;6217977;28;97111;-63
2021/10/02 13:16:45;;;;;;;;;16.00;12.00;;;;;29.57;26.19;99025.75;6225875;28;96719;-60
2021/10/02 13:19:48;;;;;;;;;15.00;14.00;;;;;29.48;26.13;99034.19;6214514;28;97121;-62
2021/10/02 13:22:53;;;;;;;;;13.00;12.50;;;;;29.35;25.91;99034.50;6226928;28;97451;-61
2021/10/02 13:25:58;;;;;;;;;16.00;14.00;;;;;29.13;26.67;99030.09;6216747;27;97075;-63
2021/10/02 13:29:01;;;;;;;;;14.00;13.00;;;;;28.93;26.86;99028.16;6220796;28;97461;-61
2021/10/02 13:32:15;;;;;;;;;14.00;14.00;;;;;28.82;26.73;99024.97;6239155;27;97912;-63
2021/10/02 13:35:22;;;;;;;;;16.00;15.00;;;;;29.13;26.67;99030.09;6224603;27;97236;-61
2021/10/02 13:38:35;;;;;;;;;16.60;15.60;;;;;29.38;26.00;99031.03;6215758;28;96792;-61
2021/10/02 13:41:40;;;;;;;;;16.80;16.80;;;;;29.59;25.24;99026.22;6230752;27;97563;-61
2021/10/02 13:44:43;;;;;;;;;20.00;19.00;;;;;29.83;25.25;99019.91;6217458;28;97492;-60
2021/10/02 13:48:02;;;;;;;;;14.00;13.40;;;;;29.87;25.00;99023.63;6230818;28;97668;-62
2021/10/02 13:51:06;;;;;;;;;13.00;12.00;;;;;30.16;24.45;99025.41;6226903;28;96894;-62
2021/10/02 13:54:11;;;;;;;;;16.75;15.50;;;;;30.25;24.73;99021.34;6226227;27;97415;-60
2021/10/02 13:57:15;;;;;;;;;17.00;16.00;;;;;30.24;25.33;99025.31;6231939;28;97266;-63
2021/10/02 14:00:18;;;;;;;;;12.00;11.00;;;;;30.17;25.21;99000.03;6233334;28;97598;-63
2021/10/02 14:03:22;;;;;;;;;13.60;13.20;;;;;30.29;25.35;99022.28;6225860;28;97547;-62
2021/10/02 14:06:25;;;;;;;;;13.00;12.00;;;;;30.32;24.97;99017.97;6224870;28;96566;-63
2021/10/02 14:09:30;;;;;;;;;13.00;12.00;;;;;30.26;24.42;99020.19;6218155;28;96513;-62
2021/10/02 14:12:33;;;;;;;;;13.60;12.00;;;;;30.31;24.74;99006.03;6224207;27;96711;-62
2021/10/02 14:15:36;;;;;;;;;14.50;14.00;;;;;30.39;24.62;99016.25;6217364;28;97497;-60
2021/10/02 14:18:40;;;;;;;;;14.00;13.00;;;;;30.47;24.91;99011.75;6211910;28;96741;-62
2021/10/02 14:21:44;;;;;;;;;13.00;13.00;;;;;30.40;25.28;99019.81;6222181;28;96657;-62
2021/10/02 14:24:48;;;;;;;;;17.60;16.60;;;;;30.22;25.34;99013.69;6229322;28;97659;-62
2021/10/02 14:27:52;;;;;;;;;14.80;14.00;;;;;30.00;24.91;99016.97;6220858;28;97505;-63
2021/10/02 14:30:55;;;;;;;;;12.60;12.00;;;;;29.79;25.20;99011.47;6218192;28;97456;-61
2021/10/02 14:34:02;;;;;;;;;15.67;14.67;;;;;29.80;25.63;99018.66;6229469;27;97429;-63
2021/10/02 14:37:06;;;;;;;;;14.00;13.00;;;;;29.90;26.67;99020.19;6234673;28;97376;-62
2021/10/02 14:40:12;;;;;;;;;14.00;14.00;;;;;29.83;26.42;99020.72;6215593;28;97819;-62
2021/10/02 14:43:16;;;;;;;;;14.80;13.80;;;;;29.81;26.14;99023.03;6231699;28;97550;-63
2021/10/02 14:46:20;;;;;;;;;19.40;17.40;;;;;29.66;26.28;99032.06;6224708;27;97084;-60
2021/10/02 14:49:23;;;;;;;;;15.00;14.40;;;;;29.50;25.80;99018.00;6230436;27;98110;-62
2021/10/02 14:52:28;;;;;;;;;12.50;11.50;;;;;29.45;26.55;99029.31;6213001;28;97483;-62
2021/10/02 14:55:33;;;;;;;;;14.50;13.00;;;;;29.34;27.37;99025.34;6225432;27;96874;-62
2021/10/02 14:58:38;;;;;;;;;14.00;13.40;;;;;29.22;27.27;99017.75;6230833;28;97321;-63
2021/10/02 15:01:47;;;;;;;;;16.00;14.00;;;;;29.10;28.12;99020.50;6224013;28;96606;-60